sensor_id;sensor_type;location;lat;lon;timestamp;pressure;altitude;pressure_sealevel;temperature;humidity
40315;BME280;26021;45.640;11.302;2023-12-20T00:00:21;98825.00;;;3.09;100.00
40315;BME280;26021;45.640;11.302;2023-12-20T00:02:46;98823.78;;;3.13;100.00
40315;BME280;26021;45.640;11.302;2023-12-20T00:05:15;98824.28;;;2.86;100.00
40315;BME280;26021;45.640;11.302;2023-12-20T00:07:40;98825.88;;;2.78;100.00
40315;BME280;26021;45.640;11.302;2023-12-20T00:10:06;98823.94;;;2.80;100.00
40315;BME280;26021;45.640;11.302;2023-12-20T00:12:32;98810.13;;;3.08;100.00
40315;BME280;26021;45.640;11.302;2023-12-20T00:14:58;98803.72;;;2.90;100.00
40315;BME280;26021;45.640;11.302;2023-12-20T00:17:23;98733.72;;;2.54;100.00
40315;BME280;26021;45.640;11.302;2023-12-20T00:19:48;98780.88;;;3.00;100.00
40315;BME280;26021;45.640;11.302;2023-12-20T00:22:14;98787.56;;;3.04;100.00
40315;BME280;26021;45.640;11.302;2023-12-20T00:24:39;98793.38;;;2.98;100.00
40315;BME280;26021;45.640;11.302;2023-12-20T00:27:05;98788.06;;;2.77;100.00
40315;BME280;26021;45.640;11.302;2023-12-20T00:29:30;98779.56;;;2.95;100.00
40315;BME280;26021;45.640;11.302;2023-12-20T00:31:56;98777.50;;;2.77;100.00
40315;BME280;26021;45.640;11.302;2023-12-20T00:34:21;98779.38;;;3.07;100.00
40315;BME280;26021;45.640;11.302;2023-12-20T00:36:47;98778.81;;;3.04;100.00
40315;BME280;26021;45.640;11.302;2023-12-20T00:39:12;98768.75;;;2.98;100.00
40315;BME280;26021;45.640;11.302;2023-12-20T00:41:38;98772.53;;;2.84;100.00
40315;BME280;26021;45.640;11.302;2023-12-20T00:44:03;98767.31;;;2.94;100.00
40315;BME280;26021;45.640;11.302;2023-12-20T00:46:29;98768.09;;;2.64;100.00
40315;BME280;26021;45.640;11.302;2023-12-20T00:48:54;98769.41;;;2.69;100.00
40315;BME280;26021;45.640;11.302;2023-12-20T00:51:20;98749.88;;;2.81;100.00
40315;BME280;26021;45.640;11.302;2023-12-20T00:53:45;98751.03;;;2.68;100.00
40315;BME280;26021;45.640;11.302;2023-12-20T00:56:14;98748.22;;;2.60;100.00
40315;BME280;26021;45.640;11.302;2023-12-20T00:58:39;98743.50;;;2.84;100.00
40315;BME280;26021;45.640;11.302;2023-12-20T01:01:05;98732.47;;;2.79;100.00
40315;BME280;26021;45.640;11.302;2023-12-20T01:03:30;98737.53;;;2.61;100.00
40315;BME280;26021;45.640;11.302;2023-12-20T01:05:56;98738.66;;;2.89;100.00
40315;BME280;26021;45.640;11.302;2023-12-20T01:08:21;98734.06;;;2.91;100.00
40315;BME280;26021;45.640;11.302;2023-12-20T01:10:47;98733.84;;;2.73;100.00
40315;BME280;26021;45.640;11.302;2023-12-20T01:13:12;98719.63;;;2.65;100.00
40315;BME280;26021;45.640;11.302;2023-12-20T01:15:38;98732.16;;;2.72;100.00
40315;BME280;26021;45.640;11.302;2023-12-20T01:18:04;98728.47;;;3.05;100.00
40315;BME280;26021;45.640;11.302;2023-12-20T01:20:29;98731.44;;;2.91;100.00
40315;BME280;26021;45.640;11.302;2023-12-20T01:22:54;98730.91;;;2.97;100.00
40315;BME280;26021;45.640;11.302;2023-12-20T01:25:20;98730.69;;;2.79;100.00
40315;BME280;26021;45.640;11.302;2023-12-20T01:27:45;98719.84;;;2.82;100.00
40315;BME280;26021;45.640;11.302;2023-12-20T01:30:11;98727.59;;;2.74;100.00
40315;BME280;26021;45.640;11.302;2023-12-20T01:32:36;98690.31;;;2.68;100.00
40315;BME280;26021;45.640;11.302;2023-12-20T01:35:02;98715.06;;;2.97;100.00
40315;BME280;26021;45.640;11.302;2023-12-20T01:37:27;98711.78;;;3.05;100.00
40315;BME280;26021;45.640;11.302;2023-12-20T01:39:54;98709.47;;;2.91;100.00
40315;BME280;26021;45.640;11.302;2023-12-20T01:42:19;98705.28;;;2.88;100.00
40315;BME280;26021;45.640;11.302;2023-12-20T01:44:45;98716.50;;;2.80;100.00
40315;BME280;26021;45.640;11.302;2023-12-20T01:47:10;98689.59;;;2.66;100.00
40315;BME280;26021;45.640;11.302;2023-12-20T01:49:36;98705.81;;;2.82;100.00
40315;BME280;26021;45.640;11.302;2023-12-20T01:52:02;98711.66;;;2.85;100.00
40315;BME280;26021;45.640;11.302;2023-12-20T01:54:28;98686.13;;;2.65;100.00
40315;BME280;26021;45.640;11.302;2023-12-20T01:56:54;98693.66;;;2.70;100.00
40315;BME280;26021;45.640;11.302;2023-12-20T01:59:20;98697.59;;;2.54;100.00
40315;BME280;26021;45.640;11.302;2023-12-20T02:01:47;98694.63;;;2.69;100.00
40315;BME280;26021;45.640;11.302;2023-12-20T02:04:12;98693.91;;;2.67;100.00
40315;BME280;26021;45.640;11.302;2023-12-20T02:06:39;98684.69;;;2.82;100.00
40315;BME280;26021;45.640;11.302;2023-12-20T02:09:05;98684.72;;;2.61;100.00
40315;BME280;26021;45.640;11.302;2023-12-20T02:11:32;98688.19;;;2.62;100.00
40315;BME280;26021;45.640;11.302;2023-12-20T02:13:58;98682.38;;;2.68;100.00
40315;BME280;26021;45.640;11.302;2023-12-20T02:16:23;98678.59;;;2.91;100.00
40315;BME280;26021;45.640;11.302;2023-12-20T02:18:49;98643.22;;;2.73;100.00
40315;BME280;26021;45.640;11.302;2023-12-20T02:21:15;98641.28;;;2.75;100.00
40315;BME280;26021;45.640;11.302;2023-12-20T02:23:40;98661.69;;;2.73;100.00
40315;BME280;26021;45.640;11.302;2023-12-20T02:26:06;98659.00;;;2.63;100.00
40315;BME280;26021;45.640;11.302;2023-12-20T02:28:32;98666.34;;;2.60;100.00
40315;BME280;26021;45.640;11.302;2023-12-20T02:30:57;98660.47;;;2.46;100.00
40315;BME280;26021;45.640;11.302;2023-12-20T02:33:23;98660.13;;;2.40;100.00
40315;BME280;26021;45.640;11.302;2023-12-20T02:35:48;98654.53;;;2.33;100.00
40315;BME280;26021;45.640;11.302;2023-12-20T02:38:14;98653.84;;;2.31;100.00
40315;BME280;26021;45.640;11.302;2023-12-20T02:40:39;98649.19;;;2.75;100.00
40315;BME280;26021;45.640;11.302;2023-12-20T02:43:04;98641.22;;;2.65;100.00
40315;BME280;26021;45.640;11.302;2023-12-20T02:45:30;98638.50;;;2.76;100.00
40315;BME280;26021;45.640;11.302;2023-12-20T02:47:55;98626.13;;;2.77;100.00
40315;BME280;26021;45.640;11.302;2023-12-20T02:50:21;98581.53;;;2.43;100.00
40315;BME280;26021;45.640;11.302;2023-12-20T02:52:47;98629.78;;;2.85;100.00
40315;BME280;26021;45.640;11.302;2023-12-20T02:55:12;98628.38;;;2.51;100.00
40315;BME280;26021;45.640;11.302;2023-12-20T02:57:38;98622.84;;;2.54;100.00
40315;BME280;26021;45.640;11.302;2023-12-20T03:00:10;98616.72;;;2.53;100.00
40315;BME280;26021;45.640;11.302;2023-12-20T03:02:36;98618.25;;;2.56;100.00
40315;BME280;26021;45.640;11.302;2023-12-20T03:05:02;98621.75;;;2.57;100.00
40315;BME280;26021;45.640;11.302;2023-12-20T03:07:27;98621.38;;;2.71;100.00
40315;BME280;26021;45.640;11.302;2023-12-20T03:09:53;98624.50;;;2.55;100.00
40315;BME280;26021;45.640;11.302;2023-12-20T03:12:18;98621.38;;;2.71;100.00
40315;BME280;26021;45.640;11.302;2023-12-20T03:14:44;98604.19;;;2.46;100.00
40315;BME280;26021;45.640;11.302;2023-12-20T03:17:10;98611.16;;;2.26;100.00
40315;BME280;26021;45.640;11.302;2023-12-20T03:19:35;98602.84;;;2.61;100.00
40315;BME280;26021;45.640;11.302;2023-12-20T03:22:01;98597.22;;;2.75;100.00
40315;BME280;26021;45.640;11.302;2023-12-20T03:24:27;98591.63;;;2.69;100.00
40315;BME280;26021;45.640;11.302;2023-12-20T03:26:53;98591.75;;;2.67;100.00
40315;BME280;26021;45.640;11.302;2023-12-20T03:29:18;98584.34;;;2.51;100.00
40315;BME280;26021;45.640;11.302;2023-12-20T03:31:44;98582.00;;;2.58;100.00
40315;BME280;26021;45.640;11.302;2023-12-20T03:34:10;98578.25;;;2.61;100.00
40315;BME280;26021;45.640;11.302;2023-12-20T03:36:36;98571.22;;;2.71;100.00
40315;BME280;26021;45.640;11.302;2023-12-20T03:39:02;98556.56;;;2.57;100.00
40315;BME280;26021;45.640;11.302;2023-12-20T03:41:28;98500.25;;;2.37;100.00
40315;BME280;26021;45.640;11.302;2023-12-20T03:43:53;98560.97;;;2.87;100.00
40315;BME280;26021;45.640;11.302;2023-12-20T03:46:19;98564.56;;;2.76;100.00
40315;BME280;26021;45.640;11.302;2023-12-20T03:48:44;98573.72;;;2.72;100.00
40315;BME280;26021;45.640;11.302;2023-12-20T03:51:09;98563.84;;;2.74;100.00
40315;BME280;26021;45.640;11.302;2023-12-20T03:53:35;98539.94;;;2.76;100.00
40315;BME280;26021;45.640;11.302;2023-12-20T03:56:00;98546.34;;;2.73;100.00
40315;BME280;26021;45.640;11.302;2023-12-20T03:58:26;98527.81;;;2.64;100.00
40315;BME280;26021;45.640;11.302;2023-12-20T04:00:51;98553.44;;;2.82;100.00
40315;BME280;26021;45.640;11.302;2023-12-20T04:03:17;98554.56;;;2.90;100.00
40315;BME280;26021;45.640;11.302;2023-12-20T04:05:42;98552.91;;;2.88;100.00
40315;BME280;26021;45.640;11.302;2023-12-20T04:08:09;98547.69;;;2.98;100.00
40315;BME280;26021;45.640;11.302;2023-12-20T04:10:35;98545.13;;;2.97;100.00
40315;BME280;26021;45.640;11.302;2023-12-20T04:13:02;98543.00;;;2.71;100.00
40315;BME280;26021;45.640;11.302;2023-12-20T04:15:28;98535.81;;;2.93;100.00
40315;BME280;26021;45.640;11.302;2023-12-20T04:17:53;98528.84;;;2.92;100.00
40315;BME280;26021;45.640;11.302;2023-12-20T04:20:19;98525.38;;;2.81;100.00
40315;BME280;26021;45.640;11.302;2023-12-20T04:22:44;98526.34;;;2.90;100.00
40315;BME280;26021;45.640;11.302;2023-12-20T04:25:10;98529.47;;;3.05;100.00
40315;BME280;26021;45.640;11.302;2023-12-20T04:27:35;98519.44;;;2.99;100.00
40315;BME280;26021;45.640;11.302;2023-12-20T04:30:01;98520.91;;;2.82;100.00
40315;BME280;26021;45.640;11.302;2023-12-20T04:32:26;98525.81;;;2.96;100.00
40315;BME280;26021;45.640;11.302;2023-12-20T04:34:52;98525.53;;;2.90;100.00
40315;BME280;26021;45.640;11.302;2023-12-20T04:37:17;98524.13;;;2.95;100.00
40315;BME280;26021;45.640;11.302;2023-12-20T04:39:43;98519.81;;;2.84;100.00
40315;BME280;26021;45.640;11.302;2023-12-20T04:42:08;98522.03;;;2.89;100.00
40315;BME280;26021;45.640;11.302;2023-12-20T04:44:34;98463.19;;;2.58;100.00
40315;BME280;26021;45.640;11.302;2023-12-20T04:46:59;98522.88;;;2.90;100.00
40315;BME280;26021;45.640;11.302;2023-12-20T04:49:25;98519.97;;;2.93;100.00
40315;BME280;26021;45.640;11.302;2023-12-20T04:51:50;98459.44;;;2.51;100.00
40315;BME280;26021;45.640;11.302;2023-12-20T04:54:16;98508.28;;;2.85;100.00
40315;BME280;26021;45.640;11.302;2023-12-20T04:57:00;98507.53;;;2.54;100.00
40315;BME280;26021;45.640;11.302;2023-12-20T04:59:25;98496.00;;;2.55;100.00
40315;BME280;26021;45.640;11.302;2023-12-20T05:01:51;98496.97;;;2.64;100.00
40315;BME280;26021;45.640;11.302;2023-12-20T05:04:16;98483.53;;;2.77;100.00
40315;BME280;26021;45.640;11.302;2023-12-20T05:06:42;98495.75;;;2.78;100.00
40315;BME280;26021;45.640;11.302;2023-12-20T05:09:07;98437.88;;;2.46;100.00
40315;BME280;26021;45.640;11.302;2023-12-20T05:11:34;98492.31;;;2.97;100.00
40315;BME280;26021;45.640;11.302;2023-12-20T05:13:59;98420.94;;;2.39;100.00
40315;BME280;26021;45.640;11.302;2023-12-20T05:16:25;98495.78;;;2.87;100.00
40315;BME280;26021;45.640;11.302;2023-12-20T05:18:50;98503.97;;;2.84;100.00
40315;BME280;26021;45.640;11.302;2023-12-20T05:21:17;98294.50;;;1.57;100.00
40315;BME280;26021;45.640;11.302;2023-12-20T05:23:43;98506.19;;;2.79;100.00
40315;BME280;26021;45.640;11.302;2023-12-20T05:26:08;98504.03;;;3.04;100.00
40315;BME280;26021;45.640;11.302;2023-12-20T05:28:34;98501.94;;;3.07;100.00
40315;BME280;26021;45.640;11.302;2023-12-20T05:30:59;98493.47;;;3.13;100.00
40315;BME280;26021;45.640;11.302;2023-12-20T05:33:24;98496.03;;;2.84;100.00
40315;BME280;26021;45.640;11.302;2023-12-20T05:35:50;98489.41;;;3.00;100.00
40315;BME280;26021;45.640;11.302;2023-12-20T05:38:15;98469.13;;;3.10;100.00
40315;BME280;26021;45.640;11.302;2023-12-20T05:40:42;98303.31;;;1.86;100.00
40315;BME280;26021;45.640;11.302;2023-12-20T05:43:07;98496.09;;;3.23;100.00
40315;BME280;26021;45.640;11.302;2023-12-20T05:45:32;98492.91;;;3.10;100.00
40315;BME280;26021;45.640;11.302;2023-12-20T05:47:58;98488.72;;;2.98;100.00
40315;BME280;26021;45.640;11.302;2023-12-20T05:50:24;98488.53;;;2.80;100.00
40315;BME280;26021;45.640;11.302;2023-12-20T05:52:49;98484.13;;;3.00;100.00
40315;BME280;26021;45.640;11.302;2023-12-20T05:55:15;98482.75;;;3.05;100.00
40315;BME280;26021;45.640;11.302;2023-12-20T05:57:41;98482.47;;;3.08;100.00
40315;BME280;26021;45.640;11.302;2023-12-20T06:00:09;98454.63;;;2.95;100.00
40315;BME280;26021;45.640;11.302;2023-12-20T06:02:34;98485.66;;;3.22;100.00
40315;BME280;26021;45.640;11.302;2023-12-20T06:05:02;98484.56;;;3.14;100.00
40315;BME280;26021;45.640;11.302;2023-12-20T06:07:28;98436.38;;;2.63;100.00
40315;BME280;26021;45.640;11.302;2023-12-20T06:09:53;98492.00;;;2.90;100.00
40315;BME280;26021;45.640;11.302;2023-12-20T06:12:18;98479.53;;;3.21;100.00
40315;BME280;26021;45.640;11.302;2023-12-20T06:14:44;98483.56;;;3.06;100.00
40315;BME280;26021;45.640;11.302;2023-12-20T06:17:09;98477.31;;;3.16;100.00
40315;BME280;26021;45.640;11.302;2023-12-20T06:19:35;98471.34;;;3.14;100.00
40315;BME280;26021;45.640;11.302;2023-12-20T06:22:00;98484.53;;;3.34;100.00
40315;BME280;26021;45.640;11.302;2023-12-20T06:24:26;98476.19;;;3.29;100.00
40315;BME280;26021;45.640;11.302;2023-12-20T06:26:53;98481.06;;;3.33;100.00
40315;BME280;26021;45.640;11.302;2023-12-20T06:29:20;98473.84;;;3.16;100.00
40315;BME280;26021;45.640;11.302;2023-12-20T06:31:45;98466.19;;;3.13;100.00
40315;BME280;26021;45.640;11.302;2023-12-20T06:34:11;98455.06;;;3.19;100.00
40315;BME280;26021;45.640;11.302;2023-12-20T06:36:36;98459.22;;;3.31;100.00
40315;BME280;26021;45.640;11.302;2023-12-20T06:39:01;98466.34;;;3.21;100.00
40315;BME280;26021;45.640;11.302;2023-12-20T06:41:27;98425.16;;;2.90;100.00
40315;BME280;26021;45.640;11.302;2023-12-20T06:43:53;98464.91;;;3.46;100.00
40315;BME280;26021;45.640;11.302;2023-12-20T06:46:18;98466.31;;;3.40;100.00
40315;BME280;26021;45.640;11.302;2023-12-20T06:48:44;98433.09;;;2.99;100.00
40315;BME280;26021;45.640;11.302;2023-12-20T06:51:14;98445.91;;;3.04;100.00
40315;BME280;26021;45.640;11.302;2023-12-20T06:53:40;98457.56;;;3.30;100.00
40315;BME280;26021;45.640;11.302;2023-12-20T06:56:06;98435.03;;;3.26;100.00
40315;BME280;26021;45.640;11.302;2023-12-20T06:58:32;98440.47;;;3.25;100.00
40315;BME280;26021;45.640;11.302;2023-12-20T07:00:58;98454.06;;;3.49;100.00
40315;BME280;26021;45.640;11.302;2023-12-20T07:03:23;98444.97;;;3.61;100.00
40315;BME280;26021;45.640;11.302;2023-12-20T07:05:49;98448.34;;;3.54;100.00
40315;BME280;26021;45.640;11.302;2023-12-20T07:08:14;98463.22;;;3.55;100.00
40315;BME280;26021;45.640;11.302;2023-12-20T07:10:41;98464.78;;;3.47;100.00
40315;BME280;26021;45.640;11.302;2023-12-20T07:13:07;98447.38;;;3.45;100.00
40315;BME280;26021;45.640;11.302;2023-12-20T07:15:33;98465.63;;;3.38;100.00
40315;BME280;26021;45.640;11.302;2023-12-20T07:17:58;98228.81;;;2.13;100.00
40315;BME280;26021;45.640;11.302;2023-12-20T07:20:25;98467.69;;;3.44;100.00
40315;BME280;26021;45.640;11.302;2023-12-20T07:22:51;98441.13;;;3.36;100.00
40315;BME280;26021;45.640;11.302;2023-12-20T07:25:16;98468.94;;;3.60;100.00
40315;BME280;26021;45.640;11.302;2023-12-20T07:27:42;98419.78;;;3.67;100.00
40315;BME280;26021;45.640;11.302;2023-12-20T07:30:08;98473.84;;;4.01;100.00
40315;BME280;26021;45.640;11.302;2023-12-20T07:32:33;98482.56;;;3.74;100.00
40315;BME280;26021;45.640;11.302;2023-12-20T07:34:59;98477.97;;;3.67;100.00
40315;BME280;26021;45.640;11.302;2023-12-20T07:37:24;98489.94;;;3.61;100.00
40315;BME280;26021;45.640;11.302;2023-12-20T07:39:50;98485.75;;;3.59;100.00
40315;BME280;26021;45.640;11.302;2023-12-20T07:42:15;98500.38;;;3.82;100.00
40315;BME280;26021;45.640;11.302;2023-12-20T07:44:41;98508.03;;;3.75;100.00
40315;BME280;26021;45.640;11.302;2023-12-20T07:47:06;98495.00;;;4.11;100.00
40315;BME280;26021;45.640;11.302;2023-12-20T07:49:32;98488.22;;;3.99;100.00
40315;BME280;26021;45.640;11.302;2023-12-20T07:51:57;98490.25;;;4.14;100.00
40315;BME280;26021;45.640;11.302;2023-12-20T07:54:23;98494.06;;;4.30;100.00
40315;BME280;26021;45.640;11.302;2023-12-20T07:56:49;98446.63;;;3.81;100.00
40315;BME280;26021;45.640;11.302;2023-12-20T07:59:14;98468.19;;;3.87;100.00
40315;BME280;26021;45.640;11.302;2023-12-20T08:01:40;98335.34;;;2.99;100.00
40315;BME280;26021;45.640;11.302;2023-12-20T08:04:05;98498.94;;;4.34;100.00
40315;BME280;26021;45.640;11.302;2023-12-20T08:06:31;98507.22;;;4.59;100.00
40315;BME280;26021;45.640;11.302;2023-12-20T08:08:57;98467.41;;;4.13;100.00
40315;BME280;26021;45.640;11.302;2023-12-20T08:11:22;98516.19;;;4.75;100.00
40315;BME280;26021;45.640;11.302;2023-12-20T08:13:48;98507.41;;;4.75;100.00
40315;BME280;26021;45.640;11.302;2023-12-20T08:16:13;98504.44;;;4.78;100.00
40315;BME280;26021;45.640;11.302;2023-12-20T08:18:40;98512.28;;;4.97;100.00
40315;BME280;26021;45.640;11.302;2023-12-20T08:21:06;98505.66;;;4.84;100.00
40315;BME280;26021;45.640;11.302;2023-12-20T08:23:33;98506.44;;;4.94;100.00
40315;BME280;26021;45.640;11.302;2023-12-20T08:26:04;98499.25;;;4.86;100.00
40315;BME280;26021;45.640;11.302;2023-12-20T08:28:29;98512.34;;;4.88;100.00
40315;BME280;26021;45.640;11.302;2023-12-20T08:30:56;98508.56;;;4.90;100.00
40315;BME280;26021;45.640;11.302;2023-12-20T08:33:21;98514.91;;;5.25;100.00
40315;BME280;26021;45.640;11.302;2023-12-20T08:35:47;98492.03;;;5.24;100.00
40315;BME280;26021;45.640;11.302;2023-12-20T08:38:12;98374.41;;;4.71;100.00
40315;BME280;26021;45.640;11.302;2023-12-20T08:40:38;98454.66;;;5.17;100.00
40315;BME280;26021;45.640;11.302;2023-12-20T08:43:03;98509.44;;;5.44;100.00
40315;BME280;26021;45.640;11.302;2023-12-20T08:45:29;98471.16;;;5.47;100.00
40315;BME280;26021;45.640;11.302;2023-12-20T08:47:54;98510.50;;;5.51;100.00
40315;BME280;26021;45.640;11.302;2023-12-20T08:50:20;98509.19;;;5.55;100.00
40315;BME280;26021;45.640;11.302;2023-12-20T08:52:45;98511.69;;;5.57;100.00
40315;BME280;26021;45.640;11.302;2023-12-20T08:55:11;98513.44;;;5.66;100.00
40315;BME280;26021;45.640;11.302;2023-12-20T08:57:36;98495.16;;;5.63;100.00
40315;BME280;26021;45.640;11.302;2023-12-20T09:00:02;98460.03;;;5.43;100.00
40315;BME280;26021;45.640;11.302;2023-12-20T09:02:28;98508.66;;;5.69;100.00
40315;BME280;26021;45.640;11.302;2023-12-20T09:04:54;98510.63;;;5.67;100.00
40315;BME280;26021;45.640;11.302;2023-12-20T09:07:24;98519.41;;;5.68;100.00
40315;BME280;26021;45.640;11.302;2023-12-20T09:09:51;98514.72;;;5.62;100.00
40315;BME280;26021;45.640;11.302;2023-12-20T09:12:20;98339.81;;;4.73;100.00
40315;BME280;26021;45.640;11.302;2023-12-20T09:14:46;98502.22;;;6.16;100.00
40315;BME280;26021;45.640;11.302;2023-12-20T09:17:12;98492.88;;;6.12;100.00
40315;BME280;26021;45.640;11.302;2023-12-20T09:19:38;98483.16;;;6.20;100.00
40315;BME280;26021;45.640;11.302;2023-12-20T09:22:04;98484.53;;;5.98;100.00
40315;BME280;26021;45.640;11.302;2023-12-20T09:24:30;98483.72;;;6.06;100.00
40315;BME280;26021;45.640;11.302;2023-12-20T09:26:56;98489.13;;;5.79;100.00
40315;BME280;26021;45.640;11.302;2023-12-20T09:29:21;98497.41;;;5.75;100.00
40315;BME280;26021;45.640;11.302;2023-12-20T09:31:47;98489.13;;;5.79;100.00
40315;BME280;26021;45.640;11.302;2023-12-20T09:34:14;98462.44;;;5.54;100.00
40315;BME280;26021;45.640;11.302;2023-12-20T09:36:40;98475.03;;;5.96;100.00
40315;BME280;26021;45.640;11.302;2023-12-20T09:39:12;98476.72;;;5.97;100.00
40315;BME280;26021;45.640;11.302;2023-12-20T09:41:43;98475.16;;;5.94;100.00
40315;BME280;26021;45.640;11.302;2023-12-20T09:44:14;98464.63;;;6.36;100.00
40315;BME280;26021;45.640;11.302;2023-12-20T09:46:43;98459.91;;;6.64;100.00
40315;BME280;26021;45.640;11.302;2023-12-20T09:49:08;98458.88;;;6.49;100.00
40315;BME280;26021;45.640;11.302;2023-12-20T09:51:36;98461.81;;;6.38;100.00
40315;BME280;26021;45.640;11.302;2023-12-20T09:54:03;98405.59;;;6.09;100.00
40315;BME280;26021;45.640;11.302;2023-12-20T09:56:29;98466.13;;;6.73;100.00
40315;BME280;26021;45.640;11.302;2023-12-20T09:58:55;98468.72;;;6.65;100.00
40315;BME280;26021;45.640;11.302;2023-12-20T10:01:21;98472.22;;;6.65;100.00
40315;BME280;26021;45.640;11.302;2023-12-20T10:03:46;98471.69;;;6.62;100.00
40315;BME280;26021;45.640;11.302;2023-12-20T10:06:12;98472.53;;;6.62;100.00
40315;BME280;26021;45.640;11.302;2023-12-20T10:08:38;98406.25;;;6.53;100.00
40315;BME280;26021;45.640;11.302;2023-12-20T10:11:05;98461.06;;;7.20;100.00
40315;BME280;26021;45.640;11.302;2023-12-20T10:13:30;98455.56;;;7.14;100.00
40315;BME280;26021;45.640;11.302;2023-12-20T10:15:56;98460.06;;;7.29;100.00
40315;BME280;26021;45.640;11.302;2023-12-20T10:18:22;98446.09;;;7.11;100.00
40315;BME280;26021;45.640;11.302;2023-12-20T10:20:48;98324.19;;;6.42;100.00
40315;BME280;26021;45.640;11.302;2023-12-20T10:23:15;98449.41;;;7.38;100.00
40315;BME280;26021;45.640;11.302;2023-12-20T10:25:40;98431.97;;;7.35;100.00
40315;BME280;26021;45.640;11.302;2023-12-20T10:28:11;98425.81;;;7.18;100.00
40315;BME280;26021;45.640;11.302;2023-12-20T10:30:37;98385.41;;;6.90;100.00
40315;BME280;26021;45.640;11.302;2023-12-20T10:33:05;98387.56;;;6.79;100.00
40315;BME280;26021;45.640;11.302;2023-12-20T10:35:31;98434.94;;;7.08;100.00
40315;BME280;26021;45.640;11.302;2023-12-20T10:37:56;98436.59;;;7.09;100.00
40315;BME280;26021;45.640;11.302;2023-12-20T10:40:25;98442.75;;;7.17;100.00
40315;BME280;26021;45.640;11.302;2023-12-20T10:42:53;98432.94;;;7.42;100.00
40315;BME280;26021;45.640;11.302;2023-12-20T10:45:19;98429.31;;;7.27;100.00
40315;BME280;26021;45.640;11.302;2023-12-20T10:47:46;98419.00;;;7.16;100.00
40315;BME280;26021;45.640;11.302;2023-12-20T10:50:12;98407.84;;;7.12;100.00
40315;BME280;26021;45.640;11.302;2023-12-20T10:52:38;98404.38;;;7.12;100.00
40315;BME280;26021;45.640;11.302;2023-12-20T10:55:04;98394.22;;;7.15;100.00
40315;BME280;26021;45.640;11.302;2023-12-20T10:57:30;98394.38;;;7.22;100.00
40315;BME280;26021;45.640;11.302;2023-12-20T11:00:00;98406.03;;;7.21;100.00
40315;BME280;26021;45.640;11.302;2023-12-20T11:02:32;98411.19;;;7.47;100.00
40315;BME280;26021;45.640;11.302;2023-12-20T11:05:10;98406.19;;;7.60;100.00
40315;BME280;26021;45.640;11.302;2023-12-20T11:07:44;98414.16;;;7.36;100.00
40315;BME280;26021;45.640;11.302;2023-12-20T11:10:21;98352.84;;;7.05;100.00
40315;BME280;26021;45.640;11.302;2023-12-20T11:15:22;98414.84;;;7.21;100.00
40315;BME280;26021;45.640;11.302;2023-12-20T11:17:57;98318.91;;;6.66;100.00
40315;BME280;26021;45.640;11.302;2023-12-20T11:20:38;98397.72;;;7.32;100.00
40315;BME280;26021;45.640;11.302;2023-12-20T11:23:04;98406.03;;;7.45;100.00
40315;BME280;26021;45.640;11.302;2023-12-20T11:25:30;98399.38;;;7.49;100.00
40315;BME280;26021;45.640;11.302;2023-12-20T11:28:09;98404.53;;;7.59;100.00
40315;BME280;26021;45.640;11.302;2023-12-20T11:30:50;98403.97;;;7.80;100.00
40315;BME280;26021;45.640;11.302;2023-12-20T11:33:15;98364.28;;;7.62;100.00
40315;BME280;26021;45.640;11.302;2023-12-20T11:35:42;98339.19;;;7.32;100.00
40315;BME280;26021;45.640;11.302;2023-12-20T11:38:09;98343.34;;;7.18;100.00
40315;BME280;26021;45.640;11.302;2023-12-20T11:40:35;98404.69;;;7.57;100.00
40315;BME280;26021;45.640;11.302;2023-12-20T11:43:02;98401.72;;;7.52;100.00
40315;BME280;26021;45.640;11.302;2023-12-20T11:45:28;98327.91;;;7.14;100.00
40315;BME280;26021;45.640;11.302;2023-12-20T11:47:54;98325.56;;;7.19;100.00
40315;BME280;26021;45.640;11.302;2023-12-20T11:50:20;98383.56;;;7.56;100.00
40315;BME280;26021;45.640;11.302;2023-12-20T11:52:47;98381.25;;;7.53;100.00
40315;BME280;26021;45.640;11.302;2023-12-20T11:55:12;98376.59;;;7.55;100.00
40315;BME280;26021;45.640;11.302;2023-12-20T11:57:38;98379.53;;;7.76;100.00
40315;BME280;26021;45.640;11.302;2023-12-20T12:00:04;98388.22;;;7.70;100.00
40315;BME280;26021;45.640;11.302;2023-12-20T12:02:31;98385.22;;;7.65;100.00
40315;BME280;26021;45.640;11.302;2023-12-20T12:04:57;98384.41;;;7.64;100.00
40315;BME280;26021;45.640;11.302;2023-12-20T12:07:24;98389.38;;;7.68;100.00
40315;BME280;26021;45.640;11.302;2023-12-20T12:09:49;98373.06;;;7.71;100.00
40315;BME280;26021;45.640;11.302;2023-12-20T12:12:15;98366.09;;;7.70;100.00
40315;BME280;26021;45.640;11.302;2023-12-20T12:14:41;98365.72;;;7.81;100.00
40315;BME280;26021;45.640;11.302;2023-12-20T12:17:13;98369.19;;;7.89;100.00
40315;BME280;26021;45.640;11.302;2023-12-20T12:19:39;98304.41;;;7.58;100.00
40315;BME280;26021;45.640;11.302;2023-12-20T12:22:23;98352.44;;;8.20;100.00
40315;BME280;26021;45.640;11.302;2023-12-20T12:24:52;98352.63;;;8.10;100.00
40315;BME280;26021;45.640;11.302;2023-12-20T12:27:17;98351.78;;;8.10;100.00
40315;BME280;26021;45.640;11.302;2023-12-20T12:30:00;98352.00;;;8.00;100.00
40315;BME280;26021;45.640;11.302;2023-12-20T12:32:27;98350.53;;;7.89;100.00
40315;BME280;26021;45.640;11.302;2023-12-20T12:34:53;98320.38;;;7.58;100.00
40315;BME280;26021;45.640;11.302;2023-12-20T12:37:18;98358.88;;;7.86;100.00
40315;BME280;26021;45.640;11.302;2023-12-20T12:39:46;98348.75;;;7.74;100.00
40315;BME280;26021;45.640;11.302;2023-12-20T12:42:12;98350.72;;;7.88;100.00
40315;BME280;26021;45.640;11.302;2023-12-20T12:44:37;98341.56;;;7.90;100.00
40315;BME280;26021;45.640;11.302;2023-12-20T12:47:03;98333.41;;;7.92;100.00